Time;durP1;ratioP1;P1;durP2;ratioP2;P2;SDS_P1;SDS_P2;PMS_P1;PMS_P2;Temp;Humidity;BMP_temperature;BMP_pressure;BME280_temperature;BME280_humidity;BME280_pressure;Samples;Min_cycle;Max_cycle;Signal;HPM_P1;HPM_P2
2021/11/16 00:01:03;;;;;;;;;;;;;;;22.33;29.54;99102.88;4991509;28;804;-80
2021/11/16 00:03:29;;;;;;;;;;;;;;;22.39;30.12;99112.53;4948733;29;931;-80
2021/11/16 00:05:54;;;;;;;;;;;;;;;22.61;29.67;99107.38;4952673;29;1910;-80
2021/11/16 00:08:20;;;;;;;;;;;;;;;22.73;29.35;99098.28;4948832;29;975;-80
2021/11/16 00:10:45;;;;;;;;;;;;;;;22.35;29.74;99104.06;4951893;29;1207;-80
2021/11/16 00:13:11;;;;;;;;;;;;;;;22.42;29.33;99094.66;4950169;29;971;-80
2021/11/16 00:15:37;;;;;;;;;;;;;;;22.34;29.33;99090.31;4951902;29;978;-80
2021/11/16 00:18:03;;;;;;;;;;;;;;;22.55;29.84;99097.75;4936733;29;997;-80
2021/11/16 00:20:29;;;;;;;;;;;;;;;22.80;29.56;99098.22;4932120;29;1000;-80
2021/11/16 00:22:55;;;;;;;;;;;;;;;22.77;29.24;99090.53;4930955;29;972;-80
2021/11/16 00:25:30;;;;;;;;;;;;;;;22.55;29.33;99092.06;4945853;29;1966;-80
2021/11/16 00:27:55;;;;;;;;;;;;;;;22.39;29.60;99089.03;4949542;29;950;-80
2021/11/16 00:30:21;;;;;;;;;;;;;;;22.31;29.66;99088.31;4950912;29;820;-80
2021/11/16 00:32:46;;;;;;;;;;;;;;;22.48;29.46;99092.16;4950690;29;945;-80
2021/11/16 00:35:12;;;;;;;;;;;;;;;22.22;29.93;99090.84;4950485;29;935;-80
2021/11/16 00:37:37;;;;;;;;;;;;;;;22.24;30.10;99106.22;4951368;29;1023;-80
2021/11/16 00:40:07;;;;;;;;;;;;;;;22.29;29.69;99102.94;4956395;28;886;-80
2021/11/16 00:42:33;;;;;;;;;;;;;;;22.21;29.83;99104.22;4990325;28;1033;-80
2021/11/16 00:44:58;;;;;;;;;;;;;;;22.52;30.00;99098.59;4988950;28;776;-80
2021/11/16 00:47:24;;;;;;;;;;;;;;;22.57;29.71;99104.59;4990982;28;1962;-79
2021/11/16 00:49:50;;;;;;;;;;;;;;;22.72;29.47;99101.56;5020153;28;898;-80
2021/11/16 00:52:16;;;;;;;;;;;;;;;22.70;29.25;99110.50;5063830;28;928;-80
2021/11/16 00:54:42;;;;;;;;;;;;;;;22.51;29.44;99108.31;5065986;28;930;-80
2021/11/16 00:57:07;;;;;;;;;;;;;;;22.41;29.42;99107.22;5028510;28;1002;-80
2021/11/16 00:59:32;;;;;;;;;;;;;;;22.30;29.55;99113.03;5025960;28;992;-80
2021/11/16 01:01:58;;;;;;;;;;;;;;;22.36;29.67;99113.38;5012541;28;878;-80
2021/11/16 01:04:27;;;;;;;;;;;;;;;22.29;30.03;99117.09;5010367;28;893;-80
2021/11/16 01:06:52;;;;;;;;;;;;;;;22.48;29.48;99126.97;4955253;29;1879;-80
2021/11/16 01:09:17;;;;;;;;;;;;;;;22.46;29.55;99115.28;4969619;29;907;-80
2021/11/16 01:11:43;;;;;;;;;;;;;;;22.27;30.04;99128.03;4970238;28;1115;-80
2021/11/16 01:14:08;;;;;;;;;;;;;;;22.11;30.58;99136.31;4967141;29;923;-80
2021/11/16 01:16:34;;;;;;;;;;;;;;;22.52;29.93;99130.59;4969583;29;897;-79
2021/11/16 01:19:01;;;;;;;;;;;;;;;22.66;29.47;99132.44;4951432;29;959;-80
2021/11/16 01:21:26;;;;;;;;;;;;;;;22.57;28.99;99129.31;4931244;29;942;-80
2021/11/16 01:23:52;;;;;;;;;;;;;;;22.28;29.66;99126.84;4912897;29;895;-80
2021/11/16 01:26:17;;;;;;;;;;;;;;;22.04;29.88;99136.38;4946514;29;1906;-80
2021/11/16 01:28:43;;;;;;;;;;;;;;;22.19;30.25;99137.88;4962072;28;888;-80
2021/11/16 01:31:08;;;;;;;;;;;;;;;22.56;29.57;99139.06;4955259;28;925;-80
2021/11/16 01:33:45;;;;;;;;;;;;;;;22.80;29.10;99148.50;4968016;28;776;-80
2021/11/16 01:36:12;;;;;;;;;;;;;;;22.39;29.37;99148.59;4932642;29;1055;-79
2021/11/16 01:38:37;;;;;;;;;;;;;;;22.31;29.46;99143.00;4929075;29;964;-80
2021/11/16 01:41:04;;;;;;;;;;;;;;;22.30;29.08;99146.25;4933048;29;967;-80
2021/11/16 01:43:29;;;;;;;;;;;;;;;22.35;29.33;99152.25;4928572;29;780;-80
2021/11/16 01:45:55;;;;;;;;;;;;;;;22.25;29.79;99152.38;4932511;29;1914;-79
2021/11/16 01:48:21;;;;;;;;;;;;;;;22.35;29.25;99146.59;4928508;29;868;-80
2021/11/16 01:50:47;;;;;;;;;;;;;;;22.43;29.29;99155.00;4970049;28;958;-80
2021/11/16 01:53:12;;;;;;;;;;;;;;;22.59;29.44;99155.25;5019006;28;926;-80
2021/11/16 01:55:38;;;;;;;;;;;;;;;22.68;29.22;99151.88;5027230;28;994;-80
2021/11/16 01:58:03;;;;;;;;;;;;;;;22.65;29.01;99153.53;5009914;28;974;-80
2021/11/16 02:00:33;;;;;;;;;;;;;;;22.28;29.54;99152.34;5027368;28;994;-80
2021/11/16 02:02:59;;;;;;;;;;;;;;;22.49;29.06;99154.13;5026770;28;826;-80
2021/11/16 02:05:37;;;;;;;;;;;;;;;22.22;29.49;99154.03;5010515;28;1968;-80
2021/11/16 02:08:03;;;;;;;;;;;;;;;22.27;29.68;99147.88;5009429;28;856;-79
2021/11/16 02:10:28;;;;;;;;;;;;;;;22.26;29.55;99157.63;5060668;28;1090;-79
2021/11/16 02:12:54;;;;;;;;;;;;;;;22.31;29.46;99154.34;5016079;28;1076;-80
2021/11/16 02:15:19;;;;;;;;;;;;;;;22.31;29.74;99160.00;5066468;28;787;-80
2021/11/16 02:17:46;;;;;;;;;;;;;;;22.16;29.80;99158.53;5066608;28;1057;-79
2021/11/16 02:20:12;;;;;;;;;;;;;;;22.44;29.73;99145.31;5049242;28;719;-79
2021/11/16 02:22:37;;;;;;;;;;;;;;;22.60;29.18;99151.16;5032936;28;890;-80
2021/11/16 02:25:03;;;;;;;;;;;;;;;22.53;29.12;99156.91;5049061;28;1586;-80
2021/11/16 02:27:29;;;;;;;;;;;;;;;22.28;29.46;99158.03;5034884;28;1883;-80
2021/11/16 02:29:54;;;;;;;;;;;;;;;22.30;29.45;99149.91;5045741;28;1019;-80
2021/11/16 02:32:19;;;;;;;;;;;;;;;22.24;29.38;99145.91;5047742;28;882;-80
2021/11/16 02:34:45;;;;;;;;;;;;;;;22.54;29.80;99141.53;5029018;28;874;-80
2021/11/16 02:37:10;;;;;;;;;;;;;;;22.69;29.39;99136.44;5046761;28;872;-80
2021/11/16 02:39:36;;;;;;;;;;;;;;;22.55;28.93;99143.13;5044746;28;861;-80
2021/11/16 02:42:02;;;;;;;;;;;;;;;22.25;29.30;99144.69;5046889;28;802;-80
2021/11/16 02:44:27;;;;;;;;;;;;;;;22.15;29.59;99137.09;5023743;28;826;-80
2021/11/16 02:46:53;;;;;;;;;;;;;;;22.49;29.67;99139.16;5009897;28;1934;-80
2021/11/16 02:49:18;;;;;;;;;;;;;;;22.71;28.98;99143.31;5025234;28;1219;-80
2021/11/16 02:51:44;;;;;;;;;;;;;;;22.58;29.12;99139.44;5007114;28;879;-80
2021/11/16 02:54:10;;;;;;;;;;;;;;;22.34;29.16;99139.31;4990081;28;1144;-80
2021/11/16 02:56:35;;;;;;;;;;;;;;;22.30;29.01;99132.06;5008498;28;898;-80
2021/11/16 02:59:01;;;;;;;;;;;;;;;22.29;29.23;99128.44;4973232;28;1089;-80
2021/11/16 03:01:26;;;;;;;;;;;;;;;22.35;30.01;99126.75;5021703;28;945;-80
2021/11/16 03:03:52;;;;;;;;;;;;;;;22.44;29.38;99131.13;5007913;28;1084;-80
2021/11/16 03:06:17;;;;;;;;;;;;;;;22.58;28.87;99136.59;5027467;28;1967;-79
2021/11/16 03:08:43;;;;;;;;;;;;;;;22.22;29.64;99137.00;5022782;28;775;-80
2021/11/16 03:11:09;;;;;;;;;;;;;;;22.33;28.88;99134.88;5027418;28;1200;-80
2021/11/16 03:13:37;;;;;;;;;;;;;;;22.41;28.87;99137.63;5003961;28;998;-79
2021/11/16 03:16:07;;;;;;;;;;;;;;;22.30;29.20;99130.03;5026332;28;896;-79
2021/11/16 03:18:32;;;;;;;;;;;;;;;22.17;29.48;99137.47;5028254;28;830;-80
2021/11/16 03:20:58;;;;;;;;;;;;;;;22.53;29.50;99139.91;5031706;28;875;-80
2021/11/16 03:23:24;;;;;;;;;;;;;;;22.69;29.25;99137.28;5043433;28;875;-80
2021/11/16 03:25:53;;;;;;;;;;;;;;;22.62;28.81;99140.19;5066671;28;1980;-79
2021/11/16 03:28:19;;;;;;;;;;;;;;;22.40;29.08;99136.03;5063274;28;880;-80
2021/11/16 03:30:47;;;;;;;;;;;;;;;22.26;29.16;99145.47;5050119;28;782;-80
2021/11/16 03:33:13;;;;;;;;;;;;;;;22.44;29.10;99143.25;5064745;28;869;-80
2021/11/16 03:35:40;;;;;;;;;;;;;;;22.30;29.18;99135.72;5070415;28;755;-79
2021/11/16 03:38:05;;;;;;;;;;;;;;;22.19;29.54;99140.72;5052311;28;973;-80
2021/11/16 03:40:32;;;;;;;;;;;;;;;22.28;29.28;99124.00;5052483;28;752;-80
2021/11/16 03:42:58;;;;;;;;;;;;;;;22.51;29.37;99125.34;5051387;28;782;-80
2021/11/16 03:45:24;;;;;;;;;;;;;;;22.59;29.30;99135.38;5072046;28;1956;-80
2021/11/16 03:47:50;;;;;;;;;;;;;;;22.73;28.70;99142.88;5069099;28;928;-80
2021/11/16 03:50:17;;;;;;;;;;;;;;;22.33;29.32;99140.56;5069513;28;821;-80
2021/11/16 03:52:43;;;;;;;;;;;;;;;22.36;29.26;99136.84;5053101;28;890;-80
2021/11/16 03:55:11;;;;;;;;;;;;;;;22.15;29.85;99142.78;5048167;28;965;-80
2021/11/16 03:57:37;;;;;;;;;;;;;;;22.14;29.47;99141.16;5033863;28;921;-80
2021/11/16 04:00:06;;;;;;;;;;;;;;;22.24;29.40;99143.09;5009276;28;994;-80
2021/11/16 04:02:32;;;;;;;;;;;;;;;22.29;29.68;99141.81;4990954;28;958;-79
2021/11/16 04:04:57;;;;;;;;;;;;;;;22.25;29.65;99144.69;4973593;28;954;-80
2021/11/16 04:07:23;;;;;;;;;;;;;;;22.41;29.30;99138.44;4992049;28;1891;-79
2021/11/16 04:09:48;;;;;;;;;;;;;;;22.31;29.35;99154.34;4972807;28;1220;-80
2021/11/16 04:12:14;;;;;;;;;;;;;;;22.11;29.69;99150.50;4992308;28;855;-80
2021/11/16 04:14:39;;;;;;;;;;;;;;;22.45;29.44;99149.75;4990199;28;955;-80
2021/11/16 04:17:05;;;;;;;;;;;;;;;22.55;29.27;99154.47;4975430;28;854;-80
2021/11/16 04:19:30;;;;;;;;;;;;;;;22.72;28.87;99147.75;4953916;29;1124;-80
2021/11/16 04:21:56;;;;;;;;;;;;;;;22.22;29.38;99145.50;4971471;28;929;-80
2021/11/16 04:24:22;;;;;;;;;;;;;;;22.33;29.16;99146.22;4970019;28;972;-80
2021/11/16 04:26:47;;;;;;;;;;;;;;;22.31;29.48;99143.00;4971392;29;1946;-80
2021/11/16 04:29:13;;;;;;;;;;;;;;;22.35;30.01;99152.25;4969890;28;962;-80
2021/11/16 04:31:39;;;;;;;;;;;;;;;22.63;29.08;99147.47;5001799;28;877;-80
2021/11/16 04:34:05;;;;;;;;;;;;;;;22.60;29.13;99151.16;4993841;28;902;-80
2021/11/16 04:36:31;;;;;;;;;;;;;;;22.43;29.08;99146.50;4975583;28;1088;-80
2021/11/16 04:38:56;;;;;;;;;;;;;;;22.36;29.29;99151.03;4973919;28;970;-80
2021/11/16 04:41:22;;;;;;;;;;;;;;;22.07;29.44;99153.38;4956795;29;882;-80
2021/11/16 04:43:47;;;;;;;;;;;;;;;22.40;29.75;99159.50;4969541;29;1009;-80
2021/11/16 04:46:17;;;;;;;;;;;;;;;22.58;29.23;99153.59;4971772;28;1907;-80
2021/11/16 04:54:13;;;;;;;;;;;;;;;22.26;29.34;99159.66;5026895;28;908;-79
2021/11/16 05:04:44;;;;;;;;;;;;;;;22.29;29.67;99164.50;5048979;28;897;-80
2021/11/16 05:07:12;;;;;;;;;;;;;;;22.43;29.97;99163.50;5050743;28;1871;-80
2021/11/16 05:09:38;;;;;;;;;;;;;;;22.73;29.23;99166.38;5049295;28;1076;-80
2021/11/16 05:12:04;;;;;;;;;;;;;;;22.67;28.96;99165.25;5049612;28;841;-80
2021/11/16 05:14:29;;;;;;;;;;;;;;;22.56;28.90;99173.91;5047108;28;842;-80
2021/11/16 05:16:55;;;;;;;;;;;;;;;22.33;29.04;99170.94;5049300;28;903;-80
2021/11/16 05:19:20;;;;;;;;;;;;;;;22.25;29.54;99175.88;5063373;28;836;-80
2021/11/16 05:21:45;;;;;;;;;;;;;;;22.26;29.50;99185.97;5070936;28;865;-80
2021/11/16 05:24:11;;;;;;;;;;;;;;;22.18;29.69;99187.28;5067368;28;854;-80
2021/11/16 05:26:37;;;;;;;;;;;;;;;22.26;29.68;99188.81;5071324;28;1993;-79
2021/11/16 05:29:02;;;;;;;;;;;;;;;22.24;29.91;99185.59;5069901;28;870;-80
2021/11/16 05:31:27;;;;;;;;;;;;;;;22.30;29.56;99195.25;5071439;28;731;-80
2021/11/16 05:33:54;;;;;;;;;;;;;;;22.43;29.38;99192.69;5030154;28;1090;-80
2021/11/16 05:36:20;;;;;;;;;;;;;;;22.20;30.05;99187.66;5049185;28;982;-80
2021/11/16 05:38:49;;;;;;;;;;;;;;;22.57;29.45;99191.72;5065756;28;975;-80
2021/11/16 05:41:15;;;;;;;;;;;;;;;22.50;29.45;99200.31;5029260;28;898;-80
2021/11/16 05:43:42;;;;;;;;;;;;;;;22.41;29.35;99205.69;5009431;28;1070;-80
2021/11/16 05:46:08;;;;;;;;;;;;;;;22.34;29.52;99196.03;5010053;28;1910;-80
2021/11/16 05:48:36;;;;;;;;;;;;;;;22.31;29.39;99207.41;4986125;28;982;-80
2021/11/16 05:51:02;;;;;;;;;;;;;;;22.21;29.53;99211.94;4974649;28;903;-80
2021/11/16 05:53:27;;;;;;;;;;;;;;;22.21;29.69;99214.78;4987266;28;871;-80
2021/11/16 05:55:52;;;;;;;;;;;;;;;22.25;29.55;99221.22;4991249;28;1431;-80
2021/11/16 05:58:18;;;;;;;;;;;;;;;22.57;29.52;99218.06;4986886;28;908;-80
2021/11/16 06:00:44;;;;;;;;;;;;;;;22.62;29.47;99211.13;4970293;29;1001;-79
2021/11/16 06:03:09;;;;;;;;;;;;;;;22.56;29.05;99230.63;4947738;29;921;-80
2021/11/16 06:05:35;;;;;;;;;;;;;;;22.11;29.89;99227.03;4919480;29;1964;-80
2021/11/16 06:08:00;;;;;;;;;;;;;;;22.38;29.20;99229.19;4949527;29;1224;-80
2021/11/16 06:10:26;;;;;;;;;;;;;;;22.31;29.63;99230.88;4896697;29;1303;-80
2021/11/16 06:12:51;;;;;;;;;;;;;;;22.28;29.80;99231.75;4855382;29;1224;-80
2021/11/16 06:15:17;;;;;;;;;;;;;;;22.52;30.01;99224.19;4853885;29;1088;-80
2021/11/16 06:17:42;;;;;;;;;;;;;;;22.62;29.44;99233.81;4859675;29;1393;-80
2021/11/16 06:20:08;;;;;;;;;;;;;;;22.59;29.41;99223.31;4863048;29;1357;-80
2021/11/16 06:22:33;;;;;;;;;;;;;;;22.34;29.57;99227.22;4848800;29;1385;-80
2021/11/16 06:24:59;;;;;;;;;;;;;;;22.38;29.53;99217.84;4853140;29;1481;-80
2021/11/16 06:27:24;;;;;;;;;;;;;;;22.23;29.96;99215.19;4875626;29;1884;-80
2021/11/16 06:29:50;;;;;;;;;;;;;;;22.33;29.84;99208.59;4873350;29;1353;-80
2021/11/16 06:32:16;;;;;;;;;;;;;;;22.07;29.97;99214.88;4888324;29;1372;-80
2021/11/16 06:34:41;;;;;;;;;;;;;;;22.18;29.73;99214.84;4909862;29;1348;-81
2021/11/16 06:37:07;;;;;;;;;;;;;;;22.25;30.05;99204.22;4911993;29;1499;-80
2021/11/16 06:39:35;;;;;;;;;;;;;;;22.45;30.03;99200.78;4914658;28;1302;-80
2021/11/16 06:42:02;;;;;;;;;;;;;;;22.76;29.54;99193.94;4955142;29;1477;-80
2021/11/16 06:44:27;;;;;;;;;;;;;;;22.60;29.35;99202.22;4977191;28;1413;-80
2021/11/16 06:46:53;;;;;;;;;;;;;;;22.45;29.28;99206.47;4988516;28;1887;-80
2021/11/16 06:49:19;;;;;;;;;;;;;;;22.34;29.65;99201.72;4948733;29;1427;-81
2021/11/16 06:51:45;;;;;;;;;;;;;;;22.48;29.46;99211.28;4950411;29;1387;-80
2021/11/16 06:54:11;;;;;;;;;;;;;;;22.53;29.31;99205.13;4915351;29;1412;-80
2021/11/16 06:56:37;;;;;;;;;;;;;;;22.26;30.02;99205.81;4916546;29;1352;-80
2021/11/16 06:59:03;;;;;;;;;;;;;;;22.14;30.12;99203.53;4924300;29;1320;-80
2021/11/16 07:01:30;;;;;;;;;;;;;;;22.19;30.20;99210.78;4949264;29;1303;-80
2021/11/16 07:03:58;;;;;;;;;;;;;;;22.25;30.12;99204.22;4937691;29;1378;-80
2021/11/16 07:06:28;;;;;;;;;;;;;;;22.24;29.81;99202.63;4937457;29;1956;-79
2021/11/16 07:08:54;;;;;;;;;;;;;;;21.96;30.55;99214.97;4939106;29;1351;-80
2021/11/16 07:11:20;;;;;;;;;;;;;;;22.08;30.43;99210.84;4915110;29;1361;-80
2021/11/16 07:14:01;;;;;;;;;;;;;;;22.25;30.34;99209.91;4910126;29;1344;-80
2021/11/16 07:16:31;;;;;;;;;;;;;;;22.54;29.78;99215.28;4946545;29;1513;-81
2021/11/16 07:18:57;;;;;;;;;;;;;;;22.72;29.43;99210.19;4918895;29;1328;-80
2021/11/16 07:21:25;;;;;;;;;;;;;;;22.41;29.82;99217.03;4942074;29;1340;-80
2021/11/16 07:24:03;;;;;;;;;;;;;;;22.32;29.41;99218.31;4940760;29;1305;-80
2021/11/16 07:26:32;;;;;;;;;;;;;;;22.15;30.13;99216.47;4918188;29;1896;-80
2021/11/16 07:28:57;;;;;;;;;;;;;;;22.23;29.76;99223.69;4932277;29;1236;-80
2021/11/16 07:31:26;;;;;;;;;;;;;;;22.67;29.67;99224.84;4921181;29;1326;-80
2021/11/16 07:33:51;;;;;;;;;;;;;;;22.74;29.52;99223.94;4981589;28;1294;-80
2021/11/16 07:36:17;;;;;;;;;;;;;;;22.50;29.38;99211.66;4962418;28;1361;-80
2021/11/16 07:38:46;;;;;;;;;;;;;;;22.25;30.08;99220.44;4958004;28;1317;-79
2021/11/16 07:41:11;;;;;;;;;;;;;;;22.26;29.77;99214.34;4926742;29;1280;-80
2021/11/16 07:43:37;;;;;;;;;;;;;;;22.23;29.74;99211.56;4911041;29;1245;-80
2021/11/16 07:46:02;;;;;;;;;;;;;;;22.34;30.47;99221.56;4916637;29;1962;-80
2021/11/16 07:48:28;;;;;;;;;;;;;;;22.65;29.65;99215.94;4912755;29;1348;-79
2021/11/16 07:50:54;;;;;;;;;;;;;;;22.70;29.14;99212.66;4898347;29;1345;-79
2021/11/16 07:53:37;;;;;;;;;;;;;;;22.46;29.62;99227.91;4867609;29;1385;-80
2021/11/16 07:56:02;;;;;;;;;;;;;;;22.22;29.95;99222.06;4869520;29;1363;-80
2021/11/16 07:58:31;;;;;;;;;;;;;;;22.34;29.60;99235.72;4864126;29;1392;-81
2021/11/16 08:00:59;;;;;;;;;;;;;;;22.39;29.84;99236.50;4872316;29;1408;-80
2021/11/16 08:03:27;;;;;;;;;;;;;;;22.33;30.01;99236.97;4862240;29;1452;-79
2021/11/16 08:06:05;;;;;;;;;;;;;;;22.25;29.95;99238.25;4849488;29;1888;-81
2021/11/16 08:11:37;;;;;;;;;;;;;;;22.50;29.89;99237.19;4884686;29;1292;-80
2021/11/16 08:13:59;;;;;;;;;;;;;;;22.63;29.44;99243.91;4913911;29;1204;-80
2021/11/16 08:16:25;;;;;;;;;;;;;;;22.28;30.09;99242.28;4950419;29;1307;-80
2021/11/16 08:18:59;;;;;;;;;;;;;;;22.34;29.58;99247.06;4930675;29;1352;-80
2021/11/16 08:21:25;;;;;;;;;;;;;;;22.40;29.44;99250.25;4899078;29;1371;-80
2021/11/16 08:23:50;;;;;;;;;;;;;;;22.28;29.77;99240.25;4904757;29;1019;-80
2021/11/16 08:26:16;;;;;;;;;;;;;;;22.30;29.85;99240.63;4934731;29;1871;-80
2021/11/16 08:28:41;;;;;;;;;;;;;;;22.17;29.79;99231.03;4947067;29;782;-80
2021/11/16 08:31:10;;;;;;;;;;;;;;;22.35;30.01;99237.34;4950775;29;1101;-80
2021/11/16 08:33:36;;;;;;;;;;;;;;;22.61;29.58;99238.69;4932213;29;954;-80
2021/11/16 08:36:01;;;;;;;;;;;;;;;22.73;29.49;99233.69;4935111;29;835;-80
2021/11/16 08:38:31;;;;;;;;;;;;;;;22.37;29.64;99239.75;4932276;29;1033;-80
2021/11/16 08:40:58;;;;;;;;;;;;;;;22.34;29.63;99229.25;4953494;29;846;-80
2021/11/16 08:43:35;;;;;;;;;;;;;;;22.32;29.62;99226.81;4949676;29;969;-80
2021/11/16 08:46:03;;;;;;;;;;;;;;;22.14;30.08;99229.03;4953312;29;1906;-80
2021/11/16 08:48:28;;;;;;;;;;;;;;;22.09;30.49;99223.78;4986900;28;795;-79
2021/11/16 08:50:55;;;;;;;;;;;;;;;22.19;29.93;99222.91;4991971;28;823;-80
2021/11/16 08:53:22;;;;;;;;;;;;;;;22.36;30.30;99221.94;4972421;28;1017;-80
2021/11/16 08:55:47;;;;;;;;;;;;;;;22.64;29.82;99220.03;5003183;28;1064;-80
2021/11/16 08:58:14;;;;;;;;;;;;;;;22.65;29.67;99212.31;5027788;28;920;-80
2021/11/16 09:00:39;;;;;;;;;;;;;;;22.40;29.83;99221.09;5029501;28;890;-80
2021/11/16 09:03:07;;;;;;;;;;;;;;;22.15;30.28;99216.47;5029178;28;917;-80
2021/11/16 09:05:34;;;;;;;;;;;;;;;22.18;30.20;99215.66;5066384;28;1962;-80
2021/11/16 09:08:01;;;;;;;;;;;;;;;21.95;30.73;99209.75;5068207;28;997;-80
2021/11/16 09:10:34;;;;;;;;;;;;;;;22.45;30.25;99212.13;5068290;28;1021;-80
2021/11/16 09:13:00;;;;;;;;;;;;;;;22.61;29.73;99207.47;5067969;28;845;-80
2021/11/16 09:15:28;;;;;;;;;;;;;;;22.34;29.93;99201.72;5068430;28;842;-80
2021/11/16 09:18:14;;;;;;;;;;;;;;;22.08;30.29;99196.69;5068034;28;953;-80
2021/11/16 09:20:40;;;;;;;;;;;;;;;21.94;30.46;99193.97;5069234;28;921;-80
2021/11/16 09:23:05;;;;;;;;;;;;;;;22.31;29.91;99182.69;5067752;28;1420;-80
2021/11/16 09:25:32;;;;;;;;;;;;;;;22.27;30.00;99179.06;5069332;28;953;-80
2021/11/16 09:28:22;;;;;;;;;;;;;;;22.23;30.23;99184.00;5084997;28;1975;-80
2021/11/16 09:30:43;;;;;;;;;;;;;;;22.29;30.20;99179.47;5071369;28;922;-80
2021/11/16 09:33:13;;;;;;;;;;;;;;;22.25;30.14;99184.38;5068080;28;1017;-80
2021/11/16 09:35:47;;;;;;;;;;;;;;;22.40;30.30;99176.53;5009993;28;1156;-80
2021/11/16 09:38:13;;;;;;;;;;;;;;;22.60;29.97;99168.19;4990702;28;907;-80
2021/11/16 09:40:38;;;;;;;;;;;;;;;22.59;30.11;99172.25;5008983;28;831;-80
2021/11/16 09:43:04;;;;;;;;;;;;;;;22.36;29.90;99182.22;5007102;28;916;-79
2021/11/16 09:45:30;;;;;;;;;;;;;;;22.34;29.68;99173.34;5008663;28;1244;-80
2021/11/16 09:47:56;;;;;;;;;;;;;;;22.33;30.00;99165.28;5007706;28;1891;-80
2021/11/16 09:50:22;;;;;;;;;;;;;;;22.33;30.15;99166.06;5007747;28;1128;-80
2021/11/16 09:52:55;;;;;;;;;;;;;;;22.18;30.27;99164.63;5007940;28;906;-80
2021/11/16 09:55:25;;;;;;;;;;;;;;;22.16;30.21;99164.22;5008317;28;1028;-80
2021/11/16 09:57:52;;;;;;;;;;;;;;;22.16;30.25;99164.22;5008922;28;1043;-81
2021/11/16 10:00:24;;;;;;;;;;;;;;;21.97;30.73;99165.59;5008363;28;867;-81
2021/11/16 10:02:55;;;;;;;;;;;;;;;22.63;29.67;99147.47;5007975;28;882;-81
2021/11/16 10:05:25;;;;;;;;;;;;;;;22.65;29.63;99158.41;5007404;28;888;-80
2021/11/16 10:08:00;;;;;;;;;;;;;;;22.60;29.42;99160.47;5068841;28;1891;-81
2021/11/16 10:10:27;;;;;;;;;;;;;;;22.33;29.82;99165.28;5069702;28;993;-80
2021/11/16 10:12:53;;;;;;;;;;;;;;;22.19;29.99;99165.41;5068780;28;1040;-80
2021/11/16 10:15:20;;;;;;;;;;;;;;;22.27;29.94;99159.22;5068760;28;1831;-80
2021/11/16 10:17:46;;;;;;;;;;;;;;;22.22;30.24;99141.88;5068012;28;916;-80
2021/11/16 10:20:12;;;;;;;;;;;;;;;22.24;30.37;99143.09;5067846;28;922;-80
2021/11/16 10:22:39;;;;;;;;;;;;;;;22.18;30.51;99146.81;5070459;28;872;-81
2021/11/16 10:25:08;;;;;;;;;;;;;;;22.31;30.22;99151.50;5068158;28;917;-81
2021/11/16 10:27:34;;;;;;;;;;;;;;;22.28;30.23;99129.69;5069196;28;1958;-81
2021/11/16 10:30:07;;;;;;;;;;;;;;;22.29;30.25;99131.28;5066493;28;881;-80
2021/11/16 10:32:33;;;;;;;;;;;;;;;22.48;30.57;99126.19;5067712;28;900;-80
2021/11/16 10:35:07;;;;;;;;;;;;;;;22.55;30.46;99128.94;5066031;28;1008;-80
2021/11/16 10:37:51;;;;;;;;;;;;;;;22.45;30.27;99132.72;5067534;28;953;-80
2021/11/16 10:40:17;;;;;;;;;;;;;;;22.18;30.54;99133.44;5066364;28;799;-80
2021/11/16 10:42:43;;;;;;;;;;;;;;;22.20;30.27;99128.13;5029246;28;901;-80
2021/11/16 10:45:12;;;;;;;;;;;;;;;22.36;30.14;99124.72;5046115;28;807;-80
2021/11/16 10:47:37;;;;;;;;;;;;;;;21.84;30.92;99122.81;5046659;28;1890;-80
2021/11/16 10:50:09;;;;;;;;;;;;;;;22.47;30.70;99130.25;5046333;28;846;-81
2021/11/16 10:52:36;;;;;;;;;;;;;;;22.56;30.25;99133.38;5031410;28;928;-80
2021/11/16 10:55:03;;;;;;;;;;;;;;;22.58;29.95;99125.25;5045931;28;844;-81
2021/11/16 10:57:48;;;;;;;;;;;;;;;22.39;30.24;99126.72;5048814;28;1195;-81
2021/11/16 11:00:14;;;;;;;;;;;;;;;22.30;29.87;99137.75;5065639;28;1077;-81
2021/11/16 11:02:40;;;;;;;;;;;;;;;22.29;30.21;99119.94;5050330;28;926;-80
2021/11/16 11:05:05;;;;;;;;;;;;;;;22.19;30.50;99120.88;5049106;28;1019;-80
2021/11/16 11:07:37;;;;;;;;;;;;;;;22.30;30.15;99115.06;5048136;28;1891;-80
2021/11/16 11:10:02;;;;;;;;;;;;;;;22.38;30.04;99118.59;5048613;28;1132;-80
2021/11/16 11:12:29;;;;;;;;;;;;;;;22.30;30.46;99110.19;5067124;28;905;-81
2021/11/16 11:14:55;;;;;;;;;;;;;;;22.23;30.56;99110.28;5067097;28;830;-80
2021/11/16 11:17:30;;;;;;;;;;;;;;;22.56;30.51;99102.19;5069908;28;811;-80
2021/11/16 11:19:56;;;;;;;;;;;;;;;22.68;29.94;99098.78;5065955;28;1119;-80
2021/11/16 11:22:23;;;;;;;;;;;;;;;22.83;29.85;99097.34;5065240;28;1042;-81
2021/11/16 11:29:58;;;;;;;;;;;;;;;22.50;29.68;99101.06;5065029;28;841;-80
2021/11/16 11:32:34;;;;;;;;;;;;;;;22.21;30.43;99086.41;5027393;28;962;-80
2021/11/16 11:35:11;;;;;;;;;;;;;;;22.29;30.59;99085.91;4966714;29;983;-80
2021/11/16 11:37:41;;;;;;;;;;;;;;;22.33;30.55;99075.34;4968055;29;962;-80
2021/11/16 11:40:08;;;;;;;;;;;;;;;22.24;30.22;99077.88;4966457;29;834;-80
2021/11/16 11:42:35;;;;;;;;;;;;;;;22.19;30.66;99083.22;4969095;29;887;-79
2021/11/16 11:45:08;;;;;;;;;;;;;;;22.28;30.35;99084.31;4967543;28;1479;-81
2021/11/16 11:47:35;;;;;;;;;;;;;;;22.11;30.85;99082.47;4953516;29;1942;-80
2021/11/16 11:50:00;;;;;;;;;;;;;;;22.47;30.79;99085.69;4970065;28;1011;-81
2021/11/16 11:52:26;;;;;;;;;;;;;;;22.63;30.40;99085.06;4969497;29;921;-80
2021/11/16 11:54:51;;;;;;;;;;;;;;;22.57;29.76;99075.41;4910431;29;859;-80
2021/11/16 11:57:17;;;;;;;;;;;;;;;22.16;30.40;99070.66;4900026;29;1038;-80
2021/11/16 11:59:43;;;;;;;;;;;;;;;22.38;29.89;99071.19;4913479;29;941;-81
2021/11/16 12:02:08;;;;;;;;;;;;;;;22.27;30.08;99076.22;4914828;29;1244;-80
2021/11/16 12:04:34;;;;;;;;;;;;;;;22.39;29.91;99072.03;4912827;29;905;-80
2021/11/16 12:07:00;;;;;;;;;;;;;;;22.21;30.40;99075.88;4932577;29;1966;-80
2021/11/16 12:09:26;;;;;;;;;;;;;;;22.23;30.17;99066.97;4947897;29;1093;-81
2021/11/16 12:11:51;;;;;;;;;;;;;;;22.10;30.54;99061.00;4934053;29;1115;-80
2021/11/16 12:14:29;;;;;;;;;;;;;;;22.44;30.87;99063.06;4913747;29;1170;-81
2021/11/16 12:16:56;;;;;;;;;;;;;;;22.71;30.18;99068.75;4915976;29;930;-81
2021/11/16 12:19:21;;;;;;;;;;;;;;;22.55;30.29;99075.06;4913794;29;996;-81
2021/11/16 12:21:47;;;;;;;;;;;;;;;22.33;30.37;99064.00;4914937;29;922;-80
2021/11/16 12:24:15;;;;;;;;;;;;;;;22.42;30.19;99062.66;4928960;29;959;-80
2021/11/16 12:26:52;;;;;;;;;;;;;;;22.32;30.12;99068.03;4982376;28;1871;-81
2021/11/16 12:29:19;;;;;;;;;;;;;;;22.31;30.25;99072.09;4989063;28;874;-80
2021/11/16 12:31:46;;;;;;;;;;;;;;;22.22;30.51;99068.97;4991564;28;926;-81
2021/11/16 12:34:30;;;;;;;;;;;;;;;22.34;30.21;99059.94;4989592;28;842;-81
2021/11/16 12:36:55;;;;;;;;;;;;;;;22.65;30.23;99056.28;4990926;28;1024;-80
2021/11/16 12:39:22;;;;;;;;;;;;;;;22.71;30.25;99066.72;4969883;29;1184;-80
2021/11/16 12:41:50;;;;;;;;;;;;;;;22.38;30.34;99064.72;4988300;28;1130;-80
2021/11/16 12:44:17;;;;;;;;;;;;;;;22.17;30.72;99054.47;4990823;28;912;-81
2021/11/16 12:46:43;;;;;;;;;;;;;;;22.05;30.56;99047.28;5011521;28;1883;-80
2021/11/16 12:49:14;;;;;;;;;;;;;;;22.28;30.29;99058.78;5008835;28;825;-80
2021/11/16 12:51:53;;;;;;;;;;;;;;;22.27;30.30;99065.66;5037170;28;920;-81
2021/11/16 12:54:20;;;;;;;;;;;;;;;22.29;30.75;99051.09;5067722;28;929;-80
2021/11/16 12:56:46;;;;;;;;;;;;;;;22.57;30.36;99056.38;5070321;28;846;-80
2021/11/16 12:59:20;;;;;;;;;;;;;;;22.64;30.16;99055.47;5051068;28;1588;-80
2021/11/16 13:01:46;;;;;;;;;;;;;;;22.17;30.83;99048.78;5069545;28;893;-80
2021/11/16 13:04:12;;;;;;;;;;;;;;;22.17;30.27;99054.47;5067757;28;794;-80
2021/11/16 13:06:43;;;;;;;;;;;;;;;22.32;30.27;99045.34;5069626;28;1878;-80
2021/11/16 13:09:09;;;;;;;;;;;;;;;22.31;30.41;99043.75;5068437;28;985;-80
2021/11/16 13:11:42;;;;;;;;;;;;;;;22.35;30.07;99044.50;5071788;28;1333;-81
2021/11/16 13:14:08;;;;;;;;;;;;;;;22.20;30.34;99057.25;5070003;28;939;-80
2021/11/16 13:16:34;;;;;;;;;;;;;;;22.11;30.75;99045.63;5071283;28;715;-81
2021/11/16 13:19:00;;;;;;;;;;;;;;;22.38;30.94;99047.72;5068706;28;822;-80
2021/11/16 13:21:26;;;;;;;;;;;;;;;22.68;29.91;99044.88;5070758;28;873;-81
2021/11/16 13:23:54;;;;;;;;;;;;;;;22.61;29.77;99039.31;5067813;28;854;-80